Sandy City
, Sandy
Last Weather Update:1/30/2012 11:00:00 PM
Date
ETo
ETc
Rain
Irrigation
Req
Temp
Max
Temp
Min
Temp
Avg
Avg RH
Avg Wind
Avg Solar
inches
inches
incehs
inches
F
F
F
%
%
watts/m2
12/1/2011 0.04" 0.00" 0.00" 0.00" 44.6° 25.7° 36.7° 46.4% 0.7 MPH 111.8w/m2
12/2/2011 0.03" 0.00" 0.00" 0.00" 40.5° 20.5° 28.9° 72.6% 0.3 MPH 110.6w/m2
12/3/2011 0.03" 0.00" 0.01" -0.01" 35.6° 23.3° 28.6° 75.1% 0.4 MPH 127.3w/m2
12/4/2011 0.01" 0.00" 0.00" 0.00" 29.2° 20.8° 25.5° 81.8% 0.2 MPH 49.9w/m2
12/5/2011 0.03" 0.00" 0.00" 0.00" 26.7° 14.2° 19.8° 67.6% 0.2 MPH 125.9w/m2
12/6/2011 0.02" 0.00" 0.00" 0.00" 31.1° 12.2° 20.6° 67.0% 0.1 MPH 104.2w/m2
12/7/2011 0.03" 0.00" 0.00" 0.00" 37.1° 14.2° 24.0° 70.0% 0.1 MPH 115.9w/m2
12/8/2011 0.03" 0.00" 0.00" 0.00" 37.2° 18.4° 26.9° 76.8% 0.1 MPH 115.3w/m2
12/9/2011 0.03" 0.00" 0.00" 0.00" 42.0° 17.8° 27.6° 80.7% 0.1 MPH 112.1w/m2
12/10/2011 0.03" 0.00" 0.00" 0.00" 41.9° 17.4° 27.2° 80.8% 0.1 MPH 113.7w/m2
12/11/2011 0.24" 0.00" 0.00" 0.00" 79.3° 18.7° 48.1° 65.2% 0.4 MPH 247.8w/m2
12/12/2011 0.03" 0.00" 0.00" 0.00" 46.2° 24.0° 32.4° 74.2% 0.1 MPH 72.4w/m2
12/13/2011 0.01" 0.00" 0.04" -0.03" 33.6° 25.3° 30.0° 99.5% 0.1 MPH 34.6w/m2
12/14/2011 0.01" 0.00" 0.01" -0.01" 34.8° 23.2° 30.1° 97.8% 0.1 MPH 38.0w/m2
12/15/2011 0.02" 0.00" 0.00" 0.00" 30.5° 18.7° 24.7° 97.9% 0.3 MPH 73.2w/m2
12/16/2011 0.01" 0.00" 0.00" 0.00" 29.9° 20.2° 26.1° 92.5% 0.2 MPH 55.5w/m2
12/17/2011 0.02" 0.00" 0.00" 0.00" 33.3° 16.8° 24.4° 94.3% 0.2 MPH 100.3w/m2
12/18/2011 0.01" 0.00" 0.00" 0.00" 32.8° 23.2° 25.7° 96.2% 0.2 MPH 56.5w/m2
12/19/2011 0.01" 0.00" 0.01" -0.01" 26.9° 22.8° 24.7° 97.4% 0.3 MPH 44.6w/m2
12/20/2011 0.01" 0.00" 0.00" 0.00" 31.3° 21.6° 26.8° 92.1% 0.1 MPH 43.5w/m2
12/21/2011 0.02" 0.00" 0.00" 0.00" 34.0° 21.7° 27.6° 84.9% 0.4 MPH 74.1w/m2
12/22/2011 0.03" 0.00" 0.00" 0.00" 32.7° 20.3° 25.9° 73.1% 0.7 MPH 114.2w/m2
12/23/2011 0.03" 0.00" 0.00" 0.00" 34.8° 14.0° 22.6° 70.7% 0.1 MPH 113.3w/m2
12/24/2011 0.03" 0.00" 0.00" 0.00" 35.2° 12.9° 23.1° 73.6% 0.1 MPH 112.3w/m2
12/25/2011 0.03" 0.00" 0.00" 0.00" 42.3° 16.3° 26.0° 73.2% 0.1 MPH 108.8w/m2
12/26/2011 0.03" 0.00" 0.00" 0.00" 42.0° 16.3° 26.4° 78.4% 0.2 MPH 105.4w/m2
12/27/2011 0.02" 0.00" 0.00" 0.00" 39.7° 19.4° 27.5° 79.1% 0.2 MPH 84.0w/m2
12/28/2011 0.02" 0.00" 0.00" 0.00" 46.0° 23.1° 35.4° 59.6% 0.1 MPH 45.0w/m2
12/29/2011 0.03" 0.00" 0.00" 0.00" 54.8° 36.8° 45.4° 54.9% 0.2 MPH 45.0w/m2
12/30/2011 0.04" 0.00" 0.00" 0.00" 60.9° 38.3° 51.0° 46.5% 0.8 MPH 53.1w/m2
12/31/2011 0.04" 0.00" 0.00" 0.00" 41.8° 22.0° 32.6° 48.3% 0.5 MPH 114.7w/m2
Totals: 0.99" 0.00" 0.07" -0.06" 79.3° 12.2° 29.1° 76.4% 0.2 MPH 91.1w/m2